Time;durP1;ratioP1;P1;durP2;ratioP2;P2;SDS_P1;SDS_P2;PMS_P1;PMS_P2;Temp;Humidity;BMP_temperature;BMP_pressure;BME280_temperature;BME280_humidity;BME280_pressure;Samples;Min_cycle;Max_cycle;Signal;HPM_P1;HPM_P2
2022/09/08 00:01:17;;;;;;;2.67;1.20;;;;;;;17.16;100.00;96239.19;5098466;28;20552;-52
2022/09/08 00:03:44;;;;;;;2.80;1.30;;;;;;;17.12;100.00;96247.78;5067938;28;20290;-52
2022/09/08 00:06:13;;;;;;;1.58;1.42;;;;;;;17.06;100.00;96238.72;5063628;28;20638;-53
2022/09/08 00:08:40;;;;;;;1.33;1.05;;;;;;;17.05;100.00;96252.25;5056925;28;20207;-53
2022/09/08 00:11:10;;;;;;;2.22;1.25;;;;;;;17.06;100.00;96251.25;5056915;28;20207;-52
2022/09/08 00:13:39;;;;;;;2.13;1.00;;;;;;;17.10;100.00;96241.81;5064555;28;20730;-51
2022/09/08 00:16:07;;;;;;;1.67;1.38;;;;;;;17.08;100.00;96246.50;5061564;28;20640;-50
2022/09/08 00:18:34;;;;;;;1.55;1.45;;;;;;;17.09;100.00;96249.00;5056797;28;20200;-51
2022/09/08 00:21:02;;;;;;;4.15;1.73;;;;;;;17.12;100.00;96253.13;5056818;28;20204;-51
2022/09/08 00:23:29;;;;;;;1.45;1.30;;;;;;;17.12;100.00;96253.97;5057062;28;20631;-51
2022/09/08 00:25:56;;;;;;;1.95;1.35;;;;;;;17.11;100.00;96265.66;5056740;28;20210;-50
2022/09/08 00:28:24;;;;;;;1.45;1.35;;;;;;;17.15;100.00;96282.13;5057160;28;20217;-50
2022/09/08 00:30:51;;;;;;;2.05;1.85;;;;;;;17.14;100.00;96276.00;5056424;28;20672;-51
2022/09/08 00:33:17;;;;;;;2.28;1.33;;;;;;;17.20;100.00;96285.06;5056969;28;20207;-51
2022/09/08 00:35:51;;;;;;;3.78;1.70;;;;;;;17.24;100.00;96295.19;5056543;28;20513;-52
2022/09/08 00:38:19;;;;;;;2.20;1.80;;;;;;;17.15;100.00;96303.50;5056449;28;20217;-53
2022/09/08 00:40:46;;;;;;;2.03;1.92;;;;;;;17.17;100.00;96312.19;5056439;28;20690;-52
2022/09/08 00:43:31;;;;;;;2.22;2.03;;;;;;;17.07;100.00;96304.50;5057299;28;20711;-52
2022/09/08 00:46:08;;;;;;;2.00;1.90;;;;;;;17.10;100.00;96297.94;5056533;28;20249;-52
2022/09/08 00:48:38;;;;;;;2.15;1.80;;;;;;;17.08;100.00;96294.59;5069981;28;20202;-52
2022/09/08 00:51:06;;;;;;;1.95;1.75;;;;;;;17.04;100.00;96312.06;5056136;28;20231;-49
2022/09/08 00:53:33;;;;;;;2.88;1.70;;;;;;;17.03;100.00;96313.06;5076309;28;20203;-50
2022/09/08 00:55:59;;;;;;;2.17;1.48;;;;;;;17.05;100.00;96303.84;5075267;28;20222;-49
2022/09/08 00:58:29;;;;;;;2.22;1.27;;;;;;;17.06;100.00;96302.00;5084363;28;20206;-53
2022/09/08 01:01:00;;;;;;;1.52;1.13;;;;;;;17.05;100.00;96289.66;5067704;28;20207;-53
2022/09/08 01:03:27;;;;;;;1.42;1.33;;;;;;;17.04;100.00;96269.31;5070503;28;20208;-51
2022/09/08 01:05:57;;;;;;;1.38;1.27;;;;;;;17.06;100.00;96264.59;5055949;28;20314;-52
2022/09/08 01:14:05;;;;;;;1.23;1.15;;;;;;;16.98;100.00;96270.06;5055494;28;20257;-53
2022/09/08 01:16:41;;;;;;;1.50;1.30;;;;;;;16.99;100.00;96272.56;5060067;28;20203;-50
2022/09/08 01:19:13;;;;;;;1.77;1.67;;;;;;;16.97;100.00;96271.09;5062005;28;20222;-50
2022/09/08 01:21:46;;;;;;;1.80;1.70;;;;;;;16.98;100.00;96272.72;5055636;28;20321;-50
2022/09/08 01:24:40;;;;;;;1.88;1.77;;;;;;;17.01;100.00;96261.66;5055869;28;20588;-49
2022/09/08 01:27:14;;;;;;;2.60;1.83;;;;;;;17.03;100.00;96256.97;5066352;28;20209;-50
2022/09/08 01:29:42;;;;;;;2.90;2.15;;;;;;;17.04;100.00;96258.63;5055654;28;20352;-51
2022/09/08 01:32:10;;;;;;;1.98;1.73;;;;;;;17.03;100.00;96249.78;5055649;28;20264;-50
2022/09/08 01:34:39;;;;;;;3.85;1.70;;;;;;;17.06;100.00;96243.22;5054613;28;20227;-50
2022/09/08 01:37:06;;;;;;;3.10;2.13;;;;;;;17.05;100.00;96241.56;5055511;28;20246;-50
2022/09/08 01:39:32;;;;;;;2.65;1.90;;;;;;;17.06;100.00;96237.88;5055230;28;20704;-49
2022/09/08 01:41:59;;;;;;;3.85;1.70;;;;;;;17.08;100.00;96246.50;5055380;28;20290;-49
2022/09/08 01:44:29;;;;;;;2.15;1.88;;;;;;;17.09;100.00;96248.19;5055237;28;20207;-49
2022/09/08 01:46:55;;;;;;;2.28;1.70;;;;;;;17.05;100.00;96247.72;5055396;28;20314;-50
2022/09/08 01:49:22;;;;;;;2.55;1.70;;;;;;;17.07;100.00;96260.91;5055165;28;20287;-50
2022/09/08 01:51:48;;;;;;;1.70;1.30;;;;;;;17.05;100.00;96257.59;5056648;28;20293;-49
2022/09/08 01:54:18;;;;;;;2.33;1.55;;;;;;;16.96;100.00;96253.41;5074832;28;20297;-49
2022/09/08 01:56:44;;;;;;;1.33;1.23;;;;;;;17.00;100.00;96250.19;5071954;28;20210;-50
2022/09/08 01:59:12;;;;;;;2.05;1.25;;;;;;;16.97;100.00;96241.72;5065413;28;20639;-49
2022/09/08 02:01:42;;;;;;;2.97;1.42;;;;;;;16.97;100.00;96250.53;5072097;28;20692;-51
2022/09/08 02:04:08;;;;;;;1.65;1.27;;;;;;;16.92;100.00;96248.47;5064062;28;20290;-50
2022/09/08 02:06:35;;;;;;;1.20;1.10;;;;;;;16.93;100.00;96257.31;5054925;28;20241;-49
2022/09/08 02:09:02;;;;;;;1.02;1.02;;;;;;;16.96;100.00;96256.91;5055354;28;20221;-49
2022/09/08 02:11:29;;;;;;;1.02;0.93;;;;;;;16.92;100.00;96253.81;5066977;28;20227;-49
2022/09/08 02:13:56;;;;;;;1.27;0.80;;;;;;;16.97;100.00;96265.75;5054852;28;20238;-50
2022/09/08 02:16:24;;;;;;;1.55;1.20;;;;;;;16.93;100.00;96266.13;5054406;28;20207;-51
2022/09/08 02:18:56;;;;;;;1.40;1.30;;;;;;;16.92;100.00;96267.16;5055185;28;20210;-50
2022/09/08 02:21:24;;;;;;;1.00;0.90;;;;;;;16.89;100.00;96267.53;5054784;28;20286;-50
2022/09/08 02:23:51;;;;;;;0.90;0.90;;;;;;;16.86;100.00;96262.56;5054515;28;20222;-49
2022/09/08 02:26:20;;;;;;;4.72;1.10;;;;;;;16.85;100.00;96268.94;5055143;28;20214;-50
2022/09/08 02:28:47;;;;;;;1.25;1.15;;;;;;;16.84;100.00;96269.94;5055723;28;20215;-51
2022/09/08 02:31:15;;;;;;;1.67;0.85;;;;;;;16.85;100.00;96268.09;5054098;28;20315;-50
2022/09/08 02:33:42;;;;;;;1.15;1.00;;;;;;;16.88;100.00;96263.22;5054890;28;20294;-48
2022/09/08 02:36:10;;;;;;;0.95;0.95;;;;;;;16.83;100.00;96260.28;5054921;28;20217;-50
2022/09/08 02:38:37;;;;;;;1.08;1.08;;;;;;;16.82;100.00;96269.31;5054744;28;20211;-50
2022/09/08 02:41:04;;;;;;;0.95;0.88;;;;;;;16.78;100.00;96262.72;5054609;28;20203;-50
2022/09/08 02:43:31;;;;;;;1.23;0.90;;;;;;;16.81;100.00;96259.66;5056634;28;20523;-51
2022/09/08 02:46:04;;;;;;;1.52;1.00;;;;;;;16.81;100.00;96261.50;5054258;28;20264;-50
2022/09/08 02:48:30;;;;;;;2.33;1.42;;;;;;;16.81;100.00;96256.16;5055675;28;20217;-51
2022/09/08 02:50:59;;;;;;;0.82;0.82;;;;;;;16.82;100.00;96255.97;5055036;28;20242;-50
2022/09/08 02:53:27;;;;;;;1.55;1.02;;;;;;;16.83;100.00;96257.59;5055612;28;20678;-50
2022/09/08 02:55:54;;;;;;;0.95;0.75;;;;;;;16.85;100.00;96250.25;5059719;28;20290;-50
2022/09/08 02:58:21;;;;;;;0.90;0.90;;;;;;;16.84;100.00;96251.25;5072716;28;20213;-49
2022/09/08 03:00:49;;;;;;;1.40;0.80;;;;;;;16.82;100.00;96250.63;5064529;28;20238;-50
2022/09/08 03:03:16;;;;;;;1.17;0.93;;;;;;;16.82;100.00;96253.31;5073182;28;20266;-51
2022/09/08 03:05:42;;;;;;;1.08;1.00;;;;;;;16.83;100.00;96246.91;5076250;28;20191;-51
2022/09/08 03:08:10;;;;;;;1.40;0.77;;;;;;;16.80;100.00;96249.97;5076252;28;20230;-51
2022/09/08 03:10:38;;;;;;;1.73;0.75;;;;;;;16.83;100.00;96251.44;5060581;28;20318;-50
2022/09/08 03:13:04;;;;;;;0.75;0.75;;;;;;;16.81;100.00;96251.63;5054521;28;20306;-49
2022/09/08 03:15:32;;;;;;;0.80;0.80;;;;;;;16.83;100.00;96254.94;5053266;28;20249;-50
2022/09/08 03:17:59;;;;;;;1.17;1.10;;;;;;;16.82;100.00;96253.31;5054412;28;20308;-51
2022/09/08 03:20:26;;;;;;;0.93;0.90;;;;;;;16.84;100.00;96255.75;5054471;28;20590;-50
2022/09/08 03:22:53;;;;;;;1.60;1.10;;;;;;;16.81;100.00;96251.63;5053605;28;20319;-50
2022/09/08 03:25:21;;;;;;;0.90;0.90;;;;;;;16.85;100.00;96241.41;5054682;28;20231;-51
2022/09/08 03:27:49;;;;;;;1.85;0.93;;;;;;;16.78;100.00;96243.19;5054353;28;20694;-50
2022/09/08 03:30:17;;;;;;;3.22;1.13;;;;;;;16.80;100.00;96251.81;5057641;28;20310;-50
2022/09/08 03:32:48;;;;;;;0.80;0.80;;;;;;;16.77;100.00;96245.03;5058018;28;20203;-51
2022/09/08 03:35:17;;;;;;;1.40;0.95;;;;;;;16.81;100.00;96250.81;5063302;28;20646;-52
2022/09/08 03:37:45;;;;;;;0.77;0.77;;;;;;;16.80;100.00;96249.97;5056922;28;20207;-51
2022/09/08 03:40:14;;;;;;;0.90;0.85;;;;;;;16.82;100.00;96255.97;5058340;28;20235;-51
2022/09/08 03:42:41;;;;;;;0.90;0.90;;;;;;;16.81;100.00;96256.97;5069885;28;20254;-49
2022/09/08 03:45:11;;;;;;;1.17;0.90;;;;;;;16.82;100.00;96255.97;5058162;28;20207;-51
2022/09/08 03:47:38;;;;;;;0.70;0.70;;;;;;;16.81;100.00;96261.50;5077568;28;20233;-50
2022/09/08 03:50:05;;;;;;;0.85;0.85;;;;;;;16.80;100.00;96260.66;5076033;28;20206;-50
2022/09/08 03:52:32;;;;;;;0.95;0.85;;;;;;;16.80;100.00;96266.00;5057542;28;20310;-50
2022/09/08 03:54:59;;;;;;;1.73;1.23;;;;;;;16.78;100.00;96270.72;5057338;28;20293;-50
2022/09/08 03:57:28;;;;;;;1.05;1.00;;;;;;;16.80;100.00;96265.16;5065318;28;20203;-51
2022/09/08 03:59:57;;;;;;;2.17;0.98;;;;;;;16.76;100.00;96256.72;5060308;28;20305;-51
2022/09/08 04:02:27;;;;;;;1.15;1.10;;;;;;;16.75;100.00;96263.09;5076972;28;20205;-51
2022/09/08 04:04:57;;;;;;;1.17;0.80;;;;;;;16.75;100.00;96257.75;5058358;28;20245;-50
2022/09/08 04:07:29;;;;;;;0.75;0.75;;;;;;;16.72;100.00;96252.75;5057305;28;20214;-49
2022/09/08 04:09:57;;;;;;;1.15;1.00;;;;;;;16.73;100.00;96246.41;5069563;28;20210;-51
2022/09/08 04:12:24;;;;;;;1.80;1.08;;;;;;;16.73;100.00;96249.09;5065046;28;20203;-50
2022/09/08 04:14:50;;;;;;;2.38;1.30;;;;;;;16.73;100.00;96253.59;5070142;28;20249;-50
2022/09/08 04:17:17;;;;;;;2.58;1.20;;;;;;;16.70;100.00;96257.47;5056921;28;20246;-51
2022/09/08 04:19:47;;;;;;;1.38;1.05;;;;;;;16.70;100.00;96248.63;5056709;28;20210;-51
2022/09/08 04:22:15;;;;;;;3.55;2.83;;;;;;;16.65;100.00;96275.91;5057141;28;20298;-49
2022/09/08 04:24:44;;;;;;;2.13;1.92;;;;;;;16.65;100.00;96273.22;5057182;28;20690;-51
2022/09/08 04:27:11;;;;;;;0.93;0.93;;;;;;;16.62;100.00;96268.28;5062197;28;20292;-50
2022/09/08 04:29:38;;;;;;;1.00;1.00;;;;;;;16.63;100.00;96283.28;5056750;28;20270;-51
2022/09/08 04:32:07;;;;;;;1.83;1.02;;;;;;;16.58;100.00;96275.00;5056591;28;20239;-51
2022/09/08 04:34:33;;;;;;;1.08;0.82;;;;;;;16.62;100.00;96273.63;5056537;28;20210;-50
2022/09/08 04:37:01;;;;;;;0.82;0.82;;;;;;;16.59;100.00;96290.03;5057308;28;20289;-50
2022/09/08 04:39:29;;;;;;;0.93;0.93;;;;;;;16.61;100.00;96290.69;5066650;28;20226;-48
2022/09/08 04:41:56;;;;;;;1.15;1.05;;;;;;;16.64;100.00;96282.28;5056184;28;20238;-49
2022/09/08 04:44:24;;;;;;;1.00;1.00;;;;;;;16.70;100.00;96296.69;5059883;28;20640;-51
2022/09/08 04:46:50;;;;;;;1.05;1.05;;;;;;;16.72;100.00;96286.69;5057055;28;20280;-48
2022/09/08 04:49:17;;;;;;;0.93;0.93;;;;;;;16.75;100.00;96289.78;5056278;28;20306;-48
2022/09/08 04:51:45;;;;;;;0.80;0.73;;;;;;;16.77;100.00;96282.41;5059192;28;20310;-49
2022/09/08 04:54:14;;;;;;;0.80;0.80;;;;;;;16.77;100.00;96290.41;5068148;28;20202;-49
2022/09/08 04:56:42;;;;;;;1.05;0.80;;;;;;;16.75;100.00;96296.97;5066644;28;20210;-49
2022/09/08 04:59:09;;;;;;;0.68;0.68;;;;;;;16.76;100.00;96286.09;5066412;28;20257;-48
2022/09/08 05:01:38;;;;;;;1.38;0.93;;;;;;;16.75;100.00;96286.28;5072826;28;20222;-49
2022/09/08 05:04:05;;;;;;;1.08;0.75;;;;;;;16.72;100.00;96284.81;5065348;28;20594;-49
2022/09/08 05:06:35;;;;;;;1.02;0.90;;;;;;;16.74;100.00;96280.13;5062142;28;20207;-47
2022/09/08 05:09:03;;;;;;;0.90;0.70;;;;;;;16.72;100.00;96268.00;5056261;28;20297;-49
2022/09/08 05:11:33;;;;;;;1.08;0.95;;;;;;;16.70;100.00;96273.50;5055770;28;20719;-50
2022/09/08 05:14:00;;;;;;;1.15;0.60;;;;;;;16.74;100.00;96271.28;5056076;28;20319;-48
2022/09/08 05:16:27;;;;;;;0.70;0.70;;;;;;;16.74;100.00;96272.13;5064160;28;20225;-50
2022/09/08 05:18:58;;;;;;;0.50;0.50;;;;;;;16.77;100.00;96285.06;5076556;28;20198;-50
2022/09/08 05:21:25;;;;;;;0.98;0.88;;;;;;;16.75;100.00;96289.78;5082761;28;20175;-50
2022/09/08 05:23:53;;;;;;;0.82;0.73;;;;;;;16.75;100.00;96297.81;5072332;28;20306;-49
2022/09/08 05:26:22;;;;;;;1.10;0.85;;;;;;;16.71;100.00;96293.84;5067927;28;20242;-49
2022/09/08 05:28:50;;;;;;;0.68;0.68;;;;;;;16.68;100.00;96296.09;5056869;28;20261;-50
2022/09/08 05:31:18;;;;;;;0.95;0.93;;;;;;;16.64;100.00;96298.31;5056169;28;20246;-48
2022/09/08 05:33:47;;;;;;;1.25;0.70;;;;;;;16.63;100.00;96296.63;5055015;28;20289;-48
2022/09/08 05:36:16;;;;;;;1.35;0.93;;;;;;;16.60;100.00;96281.00;5055004;28;20671;-50
2022/09/08 05:38:43;;;;;;;1.15;0.80;;;;;;;16.62;100.00;96289.63;5055416;28;20261;-48
2022/09/08 05:41:11;;;;;;;0.80;0.80;;;;;;;16.63;100.00;96293.13;5054677;28;20214;-48
2022/09/08 05:43:39;;;;;;;1.05;0.90;;;;;;;16.63;100.00;96293.97;5055048;28;20231;-50
2022/09/08 05:46:08;;;;;;;0.80;0.80;;;;;;;16.64;100.00;96294.81;5055517;28;20245;-49
2022/09/08 05:48:35;;;;;;;1.35;1.13;;;;;;;16.63;100.00;96296.63;5055226;28;20351;-51
2022/09/08 05:51:04;;;;;;;0.80;0.80;;;;;;;16.66;100.00;96296.25;5055062;28;20270;-49
2022/09/08 05:53:31;;;;;;;0.80;0.80;;;;;;;16.69;100.00;96301.22;5055440;28;20305;-50
2022/09/08 05:55:59;;;;;;;1.95;0.82;;;;;;;16.70;100.00;96296.69;5059431;28;20280;-50
2022/09/08 05:58:27;;;;;;;0.80;0.80;;;;;;;16.71;100.00;96301.03;5071904;28;20268;-50
2022/09/08 06:00:55;;;;;;;1.38;0.85;;;;;;;16.69;100.00;96316.41;5066272;28;20703;-49
2022/09/08 06:03:25;;;;;;;0.95;0.80;;;;;;;16.71;100.00;96314.38;5070100;28;20203;-49
2022/09/08 06:05:52;;;;;;;0.90;0.90;;;;;;;16.68;100.00;96318.28;5054911;28;20297;-51
2022/09/08 06:08:20;;;;;;;0.80;0.80;;;;;;;16.78;100.00;96323.31;5054763;28;20306;-50
2022/09/08 06:10:50;;;;;;;0.70;0.70;;;;;;;17.19;100.00;96312.78;5053795;28;20203;-50
2022/09/08 06:13:16;;;;;;;0.77;0.77;;;;;;;18.45;100.00;96326.88;5054749;28;20639;-51
2022/09/08 06:15:45;;;;;;;1.38;1.17;;;;;;;18.99;100.00;96318.00;5054695;28;20238;-51
2022/09/08 06:18:12;;;;;;;1.15;0.75;;;;;;;19.68;100.00;96319.31;5068321;28;20235;-51
2022/09/08 06:20:40;;;;;;;0.55;0.55;;;;;;;20.11;95.53;96316.97;5056307;28;20238;-50
2022/09/08 06:23:07;;;;;;;0.65;0.65;;;;;;;19.96;95.36;96326.28;5056322;28;20610;-50
2022/09/08 06:25:40;;;;;;;1.38;0.70;;;;;;;19.09;100.00;96326.47;5055503;28;20206;-50
2022/09/08 06:28:20;;;;;;;0.60;0.60;;;;;;;18.71;100.00;96332.34;5056329;28;20207;-49
2022/09/08 06:30:50;;;;;;;0.82;0.73;;;;;;;19.12;100.00;96328.75;5056641;28;20239;-49
2022/09/08 06:33:21;;;;;;;0.70;0.70;;;;;;;20.18;99.94;96325.84;5056404;28;20297;-49
2022/09/08 06:35:54;;;;;;;1.13;0.40;;;;;;;20.91;92.27;96330.94;5056697;28;20298;-51
2022/09/08 06:38:26;;;;;;;0.60;0.60;;;;;;;21.68;88.36;96334.16;5056631;28;20230;-50
2022/09/08 06:40:59;;;;;;;1.50;0.60;;;;;;;22.30;81.98;96335.91;5056226;28;20234;-50
2022/09/08 06:43:28;;;;;;;0.70;0.60;;;;;;;22.65;76.98;96343.38;5056061;28;20222;-50
2022/09/08 06:45:58;;;;;;;0.98;0.50;;;;;;;22.77;77.53;96337.06;5055920;28;20250;-50
2022/09/08 06:48:28;;;;;;;0.50;0.50;;;;;;;22.92;80.85;96342.03;5056748;28;20286;-51
2022/09/08 06:51:10;;;;;;;2.55;0.80;;;;;;;23.27;76.36;96339.50;5056229;28;20311;-49
2022/09/08 06:53:41;;;;;;;0.93;0.68;;;;;;;23.26;75.13;96337.84;5056417;28;20202;-50
2022/09/08 06:56:16;;;;;;;0.80;0.60;;;;;;;22.77;77.78;96334.38;5061677;28;20289;-51
2022/09/08 06:58:47;;;;;;;0.68;0.60;;;;;;;21.93;79.39;96336.88;5070961;28;20627;-49
2022/09/08 07:01:19;;;;;;;0.50;0.40;;;;;;;21.68;80.27;96331.47;5069365;28;20631;-50
2022/09/08 07:04:01;;;;;;;0.45;0.40;;;;;;;21.51;76.53;96333.06;5065712;28;20524;-49
2022/09/08 07:06:36;;;;;;;1.48;0.65;;;;;;;21.43;77.91;96345.97;5059740;28;20206;-50
2022/09/08 07:09:12;;;;;;;0.60;0.60;;;;;;;21.22;77.47;96339.91;5059739;28;20702;-50
2022/09/08 07:12:00;;;;;;;0.47;0.40;;;;;;;21.30;81.60;96346.88;5060892;28;20246;-50
2022/09/08 07:14:49;;;;;;;0.70;0.70;;;;;;;21.36;84.84;96342.53;5069002;28;20239;-51
2022/09/08 07:17:21;;;;;;;0.70;0.70;;;;;;;21.43;80.46;96344.13;5062345;28;20241;-50
2022/09/08 07:19:52;;;;;;;0.73;0.73;;;;;;;21.50;81.04;96336.81;5071453;28;20206;-50
2022/09/08 07:22:34;;;;;;;0.70;0.65;;;;;;;21.33;83.09;96351.81;5069542;28;20209;-49
2022/09/08 07:25:10;;;;;;;1.55;0.50;;;;;;;21.07;81.26;96346.59;5073126;28;20214;-51
2022/09/08 07:27:38;;;;;;;1.20;0.82;;;;;;;21.01;81.92;96342.09;5078585;28;20234;-50
2022/09/08 07:30:07;;;;;;;0.50;0.50;;;;;;;21.03;82.11;96351.56;5088918;28;20210;-49
2022/09/08 07:32:37;;;;;;;0.77;0.60;;;;;;;21.13;80.42;96353.81;5078905;28;20700;-50
2022/09/08 07:35:06;;;;;;;0.93;0.70;;;;;;;21.07;77.86;96351.97;5090872;28;20178;-50
2022/09/08 07:37:40;;;;;;;1.15;1.10;;;;;;;20.82;81.24;96347.34;5084524;28;20218;-52
2022/09/08 07:40:15;;;;;;;1.95;1.05;;;;;;;20.72;82.32;96341.59;5079829;28;20203;-49
2022/09/08 07:42:46;;;;;;;0.57;0.57;;;;;;;20.60;88.60;96340.59;5073938;28;20250;-50
2022/09/08 07:45:13;;;;;;;1.10;0.90;;;;;;;20.64;84.68;96339.16;5079492;28;20199;-51
2022/09/08 07:47:50;;;;;;;1.58;0.77;;;;;;;20.58;82.61;96342.66;5081737;28;20199;-50
2022/09/08 07:50:23;;;;;;;1.45;0.75;;;;;;;20.47;82.11;96339.84;5083902;28;20206;-51
2022/09/08 07:52:56;;;;;;;1.00;0.70;;;;;;;20.33;82.89;96342.53;5071697;28;20286;-51
2022/09/08 07:55:29;;;;;;;0.65;0.57;;;;;;;20.38;85.61;96347.28;5063035;28;20712;-50
2022/09/08 07:58:02;;;;;;;1.23;1.17;;;;;;;20.17;85.71;96342.16;5057340;28;20199;-51
2022/09/08 08:00:38;;;;;;;1.75;1.65;;;;;;;20.24;86.46;96342.97;5069596;28;20203;-49
2022/09/08 08:03:20;;;;;;;1.88;0.93;;;;;;;20.10;90.41;96338.66;5069950;28;20202;-50
2022/09/08 08:05:49;;;;;;;0.77;0.75;;;;;;;20.17;88.83;96334.09;5069091;28;20619;-50
2022/09/08 08:08:29;;;;;;;0.80;0.80;;;;;;;20.13;90.62;96340.91;5063770;28;20297;-51
2022/09/08 08:11:03;;;;;;;2.08;0.88;;;;;;;20.14;88.86;96340.72;5064179;28;20199;-50
2022/09/08 08:13:41;;;;;;;1.02;0.80;;;;;;;20.08;84.80;96344.25;5064816;28;20224;-50
2022/09/08 08:16:09;;;;;;;0.60;0.60;;;;;;;19.96;87.20;96348.59;5060525;28;20199;-51
2022/09/08 08:18:44;;;;;;;0.65;0.65;;;;;;;20.06;87.94;96351.66;5067091;28;20294;-50
2022/09/08 08:21:14;;;;;;;1.38;0.70;;;;;;;20.03;86.70;96353.94;5063658;28;20276;-51
2022/09/08 08:23:58;;;;;;;1.30;0.93;;;;;;;20.12;85.67;96353.50;5066670;28;20643;-50
2022/09/08 08:26:34;;;;;;;0.60;0.60;;;;;;;20.17;87.16;96350.22;5063928;28;20521;-50
2022/09/08 08:29:20;;;;;;;1.02;0.70;;;;;;;20.28;84.89;96355.78;5063719;28;20552;-50
2022/09/08 08:31:52;;;;;;;2.05;0.70;;;;;;;20.43;83.74;96363.59;5065480;28;20254;-49
2022/09/08 08:34:26;;;;;;;0.90;0.90;;;;;;;20.32;80.58;96351.66;5070758;28;20237;-49
2022/09/08 08:36:57;;;;;;;1.20;0.90;;;;;;;20.27;83.09;96362.19;5069999;28;20270;-51
2022/09/08 08:39:26;;;;;;;0.70;0.70;;;;;;;20.34;87.09;96363.00;5056880;28;20235;-50
2022/09/08 08:42:11;;;;;;;1.38;0.85;;;;;;;20.52;82.82;96364.19;5057555;28;20541;-49
2022/09/08 08:44:47;;;;;;;0.85;0.85;;;;;;;20.68;83.33;96361.88;5074076;28;20206;-50
2022/09/08 08:47:52;;;;;;;1.42;0.75;;;;;;;20.68;84.11;96356.50;5063917;28;20293;-49
2022/09/08 08:50:44;;;;;;;1.00;0.70;;;;;;;20.63;85.49;96367.06;5063454;28;20206;-48
2022/09/08 08:53:42;;;;;;;1.38;1.15;;;;;;;20.38;78.83;96370.63;5063472;28;20306;-49
2022/09/08 08:56:17;;;;;;;1.00;0.90;;;;;;;20.05;82.02;96376.84;5060010;28;20230;-50
2022/09/08 08:59:17;;;;;;;0.88;0.88;;;;;;;20.02;82.64;96368.38;5072513;28;20631;-50
2022/09/08 09:02:02;;;;;;;0.75;0.75;;;;;;;20.23;86.79;96370.84;5069574;28;20283;-50
2022/09/08 09:05:00;;;;;;;1.13;0.93;;;;;;;20.69;83.17;96370.75;5069646;28;20288;-48
2022/09/08 09:08:03;;;;;;;0.90;0.90;;;;;;;21.03;77.08;96366.88;5056695;28;20652;-50
2022/09/08 09:10:45;;;;;;;1.63;1.52;;;;;;;21.32;79.37;96360.97;5058150;28;20221;-50
2022/09/08 09:13:40;;;;;;;0.90;0.90;;;;;;;21.53;77.54;96367.84;5069190;28;20215;-51
2022/09/08 09:16:13;;;;;;;1.85;0.88;;;;;;;21.62;75.10;96361.97;5046382;28;20213;-52
2022/09/08 09:19:09;;;;;;;1.65;1.00;;;;;;;21.44;76.67;96366.44;5065978;28;20222;-52
2022/09/08 09:21:50;;;;;;;1.45;1.35;;;;;;;21.31;78.25;96370.06;5055819;28;20289;-51
2022/09/08 09:24:37;;;;;;;1.33;1.00;;;;;;;21.14;76.19;96358.16;5056239;28;20317;-49
2022/09/08 09:27:14;;;;;;;0.75;0.75;;;;;;;20.95;75.60;96375.19;5055389;28;20225;-50
2022/09/08 09:29:45;;;;;;;0.80;0.80;;;;;;;20.88;75.12;96366.31;5055975;28;20195;-50
2022/09/08 09:32:47;;;;;;;1.33;0.95;;;;;;;20.61;76.65;96362.94;5057326;28;20601;-50
2022/09/08 09:35:38;;;;;;;1.67;0.70;;;;;;;21.07;76.47;96360.03;5075620;28;20241;-50
2022/09/08 09:38:17;;;;;;;2.88;1.50;;;;;;;21.43;73.27;96359.44;5065924;28;20297;-51
2022/09/08 09:41:00;;;;;;;2.60;0.90;;;;;;;21.68;73.16;96358.41;5061868;28;20277;-49
2022/09/08 09:43:39;;;;;;;1.63;0.93;;;;;;;21.92;71.62;96364.88;5061994;28;20572;-51
2022/09/08 09:46:47;;;;;;;1.10;1.00;;;;;;;22.22;74.23;96351.53;5066058;28;20739;-51
2022/09/08 09:49:28;;;;;;;1.23;0.98;;;;;;;22.09;72.94;96357.06;5084858;28;20186;-52
2022/09/08 09:52:14;;;;;;;1.10;1.00;;;;;;;22.03;71.38;96352.56;5078694;28;20221;-52
2022/09/08 09:54:54;;;;;;;2.40;1.15;;;;;;;22.10;74.05;96354.16;5077170;28;20202;-50
2022/09/08 09:58:00;;;;;;;1.77;0.88;;;;;;;22.27;67.92;96344.44;5070700;28;20266;-50
2022/09/08 10:00:30;;;;;;;1.33;0.73;;;;;;;22.29;69.49;96349.59;5046277;28;20238;-50
2022/09/08 10:03:50;;;;;;;1.10;0.73;;;;;;;22.33;67.30;96342.72;5063230;28;20198;-49
2022/09/08 10:06:25;;;;;;;1.00;0.80;;;;;;;22.01;67.41;96339.31;5032628;28;20230;-51
2022/09/08 10:09:41;;;;;;;2.05;1.35;;;;;;;21.90;68.52;96337.34;5064997;28;20194;-50
2022/09/08 10:12:46;;;;;;;1.48;0.90;;;;;;;21.81;65.52;96344.84;5054967;28;20605;-49
2022/09/08 10:15:52;;;;;;;2.30;1.10;;;;;;;21.77;68.00;96329.34;5054650;28;20679;-49
2022/09/08 10:18:52;;;;;;;1.75;0.70;;;;;;;21.78;67.83;96344.47;5054961;28;20301;-49
2022/09/08 10:22:12;;;;;;;1.40;0.70;;;;;;;21.99;69.88;96332.50;5060215;28;20238;-51
2022/09/08 10:25:12;;;;;;;0.60;0.60;;;;;;;21.82;67.90;96329.53;5061810;28;20195;-51
2022/09/08 10:28:14;;;;;;;1.63;0.93;;;;;;;22.09;68.17;96324.72;5028407;28;20570;-49
2022/09/08 10:31:07;;;;;;;1.60;0.80;;;;;;;22.17;68.46;96332.53;5056746;28;20211;-49
2022/09/08 10:34:12;;;;;;;2.42;1.27;;;;;;;22.14;63.47;96338.38;5062561;28;20270;-50
2022/09/08 10:36:56;;;;;;;2.15;1.25;;;;;;;22.10;65.25;96331.78;5009067;28;20386;-49
2022/09/08 10:39:43;;;;;;;1.35;1.20;;;;;;;22.06;64.46;96325.19;5053855;28;20715;-51
2022/09/08 10:42:36;;;;;;;1.58;0.90;;;;;;;22.36;67.60;96334.19;5054725;28;20280;-49
2022/09/08 10:45:34;;;;;;;0.85;0.85;;;;;;;22.70;63.93;96322.00;5054682;28;20290;-49
2022/09/08 10:48:53;;;;;;;1.10;1.00;;;;;;;22.75;61.81;96322.97;5055038;28;20203;-50
2022/09/08 10:51:55;;;;;;;3.33;1.13;;;;;;;23.07;64.09;96322.75;5054723;28;20206;-50
2022/09/08 10:54:51;;;;;;;1.25;0.70;;;;;;;23.22;61.60;96320.47;5059277;28;20202;-50
2022/09/08 10:57:23;;;;;;;0.93;0.73;;;;;;;23.47;58.94;96317.63;5064448;28;20256;-50
2022/09/08 11:00:03;;;;;;;2.15;1.00;;;;;;;23.27;58.66;96317.91;5066338;28;20209;-51
2022/09/08 11:02:36;;;;;;;2.63;1.10;;;;;;;23.17;58.03;96315.75;5074177;28;20192;-50
2022/09/08 11:05:40;;;;;;;1.40;0.82;;;;;;;23.40;58.01;96309.59;5068909;28;20195;-50
2022/09/08 11:08:37;;;;;;;1.95;1.00;;;;;;;23.82;59.65;96302.28;5067333;28;20299;-49
2022/09/08 11:11:30;;;;;;;1.45;0.50;;;;;;;24.06;57.28;96300.41;5054256;28;20605;-50
2022/09/08 11:14:03;;;;;;;0.98;0.77;;;;;;;24.17;57.97;96302.31;5065706;28;20317;-50
2022/09/08 11:16:52;;;;;;;1.05;0.60;;;;;;;23.74;59.57;96299.94;5059726;28;20286;-50
2022/09/08 11:19:40;;;;;;;0.57;0.57;;;;;;;23.92;57.46;96299.00;5062308;28;20211;-49
2022/09/08 11:22:32;;;;;;;1.35;0.70;;;;;;;24.07;57.90;96313.69;5062387;28;20195;-51
2022/09/08 11:25:17;;;;;;;1.05;0.80;;;;;;;24.17;56.13;96302.31;5054252;28;20265;-51
2022/09/08 11:27:50;;;;;;;2.75;1.08;;;;;;;24.30;58.02;96302.09;5054173;28;20222;-50
2022/09/08 11:30:20;;;;;;;1.25;0.80;;;;;;;24.64;58.90;96289.53;5054492;28;20241;-51
2022/09/08 11:32:54;;;;;;;2.58;1.05;;;;;;;24.55;53.56;96299.91;5053902;28;20215;-52
2022/09/08 11:35:38;;;;;;;1.65;0.95;;;;;;;24.57;55.88;96300.50;5053077;28;20229;-49
2022/09/08 11:38:31;;;;;;;1.85;0.80;;;;;;;24.75;53.69;96297.63;5052904;28;20234;-51
2022/09/08 11:41:16;;;;;;;1.00;1.00;;;;;;;24.14;51.16;96295.50;5054134;28;20210;-50
2022/09/08 11:46:59;;;;;;;1.35;0.90;;;;;;;24.02;53.79;96291.94;5072879;27;2288158;-51
2022/09/08 11:49:44;;;;;;;1.00;0.63;;;;;;;24.19;51.80;96300.22;5133345;28;20193;-51
2022/09/08 11:52:25;;;;;;;0.60;0.60;;;;;;;24.45;53.43;96297.00;5112116;28;20300;-51
2022/09/08 11:55:11;;;;;;;1.95;0.80;;;;;;;24.59;54.82;96290.25;5128135;28;20189;-49
2022/09/08 11:57:53;;;;;;;1.55;1.02;;;;;;;24.81;51.96;96295.00;5121154;28;20625;-51
2022/09/08 12:00:34;;;;;;;2.65;0.80;;;;;;;24.85;50.96;96288.09;5117011;28;20189;-51
2022/09/08 12:03:17;;;;;;;1.73;1.00;;;;;;;24.89;52.35;96289.25;5119606;28;20201;-51
2022/09/08 12:05:58;;;;;;;0.73;0.57;;;;;;;25.05;53.39;96277.66;5132563;28;20244;-50
2022/09/08 12:09:02;;;;;;;1.52;0.80;;;;;;;25.10;52.68;96286.69;5132333;28;20208;-51
2022/09/08 12:11:42;;;;;;;2.05;1.55;;;;;;;25.02;49.62;96302.50;5132296;28;20236;-50
2022/09/08 12:14:19;;;;;;;1.38;0.85;;;;;;;24.81;48.95;96286.91;5132606;28;20571;-52